Time;durP1;ratioP1;P1;durP2;ratioP2;P2;SDS_P1;SDS_P2;PMS_P1;PMS_P2;Temp;Humidity;BMP_temperature;BMP_pressure;BME280_temperature;BME280_humidity;BME280_pressure;Samples;Min_cycle;Max_cycle;Signal;HPM_P1;HPM_P2
2022/04/08 00:01:07;;;;;;;16.50;3.30;;;6.60;99.90;;;;;;5058931;28;38900;-77
2022/04/08 00:03:33;;;;;;;13.50;2.07;;;6.60;99.90;;;;;;5055609;28;38168;-78
2022/04/08 00:05:59;;;;;;;11.57;2.47;;;6.60;99.90;;;;;;5058334;28;37071;-78
2022/04/08 00:08:25;;;;;;;24.57;2.37;;;6.70;99.90;;;;;;5058056;28;37072;-77
2022/04/08 00:10:51;;;;;;;12.17;2.40;;;6.70;99.90;;;;;;5059229;28;38890;-78
2022/04/08 00:13:18;;;;;;;14.67;2.83;;;6.70;99.90;;;;;;5076877;28;38767;-78
2022/04/08 00:15:44;;;;;;;22.30;3.37;;;6.80;99.90;;;;;;5060879;28;37492;-78
2022/04/08 00:18:10;;;;;;;20.30;2.73;;;6.80;99.90;;;;;;5062966;28;35776;-78
2022/04/08 00:20:36;;;;;;;18.00;2.63;;;6.70;99.90;;;;;;5060873;28;38393;-78
2022/04/08 00:23:04;;;;;;;16.17;2.40;;;6.70;99.90;;;;;;5064008;27;39839;-78
2022/04/08 00:25:30;;;;;;;23.57;4.83;;;6.60;99.90;;;;;;5077752;28;37189;-77
2022/04/08 00:27:57;;;;;;;13.63;2.53;;;6.50;99.90;;;;;;5051323;28;35926;-78
2022/04/08 00:30:23;;;;;;;15.97;2.27;;;6.40;99.90;;;;;;5057645;28;39242;-78
2022/04/08 00:32:51;;;;;;;9.20;2.07;;;6.50;99.90;;;;;;5058572;28;39995;-78
2022/04/08 00:35:17;;;;;;;22.67;2.80;;;6.50;99.90;;;;;;5059477;28;38124;-77
2022/04/08 00:37:44;;;;;;;19.53;3.27;;;6.60;99.90;;;;;;5053560;28;37140;-77
2022/04/08 00:40:10;;;;;;;18.33;3.73;;;6.60;99.90;;;;;;5064102;28;39180;-77
2022/04/08 00:42:40;;;;;;;12.87;2.30;;;6.70;99.90;;;;;;5056357;28;39382;-77
2022/04/08 00:45:06;;;;;;;15.00;2.60;;;6.70;99.90;;;;;;5072358;28;36865;-79
2022/04/08 00:47:35;;;;;;;12.53;2.50;;;6.70;99.90;;;;;;5059739;28;35596;-79
2022/04/08 00:50:03;;;;;;;17.90;3.57;;;6.40;99.90;;;;;;5060657;28;37810;-78
2022/04/08 00:52:32;;;;;;;14.33;2.73;;;6.20;99.90;;;;;;5065668;28;38939;-79
2022/04/08 00:54:59;;;;;;;12.43;2.43;;;6.00;99.90;;;;;;5059461;28;37659;-79
2022/04/08 00:57:25;;;;;;;14.63;2.50;;;5.80;99.90;;;;;;5060404;27;37700;-79
2022/04/08 00:59:52;;;;;;;22.67;3.03;;;5.70;99.90;;;;;;5061122;28;38599;-78
2022/04/08 01:02:18;;;;;;;12.10;2.50;;;5.60;99.90;;;;;;5078786;28;37850;-78
2022/04/08 01:04:44;;;;;;;22.93;3.37;;;5.60;99.90;;;;;;5058411;28;39475;-78
2022/04/08 01:07:10;;;;;;;19.37;2.57;;;5.50;99.90;;;;;;5059633;28;37662;-78
2022/04/08 01:09:36;;;;;;;13.37;2.57;;;5.50;99.90;;;;;;5058321;28;39277;-78
2022/04/08 01:12:03;;;;;;;17.07;2.57;;;5.40;99.90;;;;;;5060603;28;38292;-78
2022/04/08 01:14:29;;;;;;;15.60;2.63;;;5.30;99.90;;;;;;5059946;28;38853;-78
2022/04/08 01:16:55;;;;;;;17.40;3.30;;;5.30;99.90;;;;;;5055937;28;35865;-79
2022/04/08 01:19:21;;;;;;;21.97;3.30;;;5.20;99.90;;;;;;5057655;28;39399;-78
2022/04/08 01:21:47;;;;;;;18.50;2.57;;;5.20;99.90;;;;;;5079928;28;37525;-78
2022/04/08 01:24:15;;;;;;;15.37;2.83;;;5.30;99.90;;;;;;5059332;28;37231;-78
2022/04/08 01:26:41;;;;;;;17.63;2.87;;;5.30;99.90;;;;;;5060408;28;37491;-78
2022/04/08 01:29:08;;;;;;;22.10;3.07;;;5.50;99.90;;;;;;5054014;28;39614;-78
2022/04/08 01:31:34;;;;;;;15.63;2.27;;;5.50;99.90;;;;;;5058062;28;39454;-79
2022/04/08 01:34:00;;;;;;;17.13;2.70;;;5.60;99.90;;;;;;5056279;28;38219;-77
2022/04/08 01:36:26;;;;;;;14.90;2.10;;;5.70;99.90;;;;;;5058337;28;36857;-78
2022/04/08 01:38:52;;;;;;;20.93;2.07;;;5.70;99.90;;;;;;5063939;28;38812;-78
2022/04/08 01:41:20;;;;;;;15.43;3.17;;;5.80;99.90;;;;;;5063183;28;40193;-78
2022/04/08 01:43:46;;;;;;;14.40;2.00;;;5.70;99.90;;;;;;5063133;28;36941;-78
2022/04/08 01:46:12;;;;;;;12.63;2.23;;;5.70;99.90;;;;;;5065903;28;38095;-78
2022/04/08 01:48:38;;;;;;;12.33;2.07;;;5.70;99.90;;;;;;5061751;28;40388;-78
2022/04/08 01:51:04;;;;;;;7.67;1.87;;;5.70;99.90;;;;;;5062106;28;38732;-77
2022/04/08 01:53:30;;;;;;;14.27;2.03;;;5.60;99.90;;;;;;5062738;28;38094;-78
2022/04/08 01:55:56;;;;;;;13.00;1.83;;;5.60;99.90;;;;;;5065301;28;37124;-78
2022/04/08 01:58:22;;;;;;;15.80;1.97;;;5.70;99.90;;;;;;5066755;28;39610;-77
2022/04/08 02:00:49;;;;;;;21.10;2.00;;;5.70;99.90;;;;;;5064588;28;40268;-78
2022/04/08 02:03:19;;;;;;;13.70;1.70;;;5.70;99.90;;;;;;5058590;28;38139;-78
2022/04/08 02:05:46;;;;;;;8.83;1.73;;;5.70;99.90;;;;;;5060629;28;36560;-78
2022/04/08 02:08:12;;;;;;;11.90;1.70;;;5.70;99.90;;;;;;5062390;28;39947;-77
2022/04/08 02:10:38;;;;;;;10.57;1.73;;;5.60;99.90;;;;;;5057858;28;37688;-78
2022/04/08 02:13:05;;;;;;;12.33;2.17;;;5.60;99.90;;;;;;5071712;28;37970;-77
2022/04/08 02:15:33;;;;;;;8.53;1.57;;;5.50;99.90;;;;;;5058342;28;37144;-78
2022/04/08 02:18:00;;;;;;;11.70;2.23;;;5.50;99.90;;;;;;5059578;28;39366;-78
2022/04/08 02:20:26;;;;;;;6.70;1.70;;;5.50;99.90;;;;;;5057592;28;38399;-77
2022/04/08 02:22:52;;;;;;;10.63;1.77;;;5.60;99.90;;;;;;5058358;27;38747;-78
2022/04/08 02:25:18;;;;;;;6.83;1.63;;;5.60;99.90;;;;;;5078479;28;37483;-78
2022/04/08 02:27:45;;;;;;;11.37;1.97;;;5.60;99.90;;;;;;5066557;28;39751;-78
2022/04/08 02:30:12;;;;;;;9.47;1.87;;;5.60;99.90;;;;;;5064225;28;38871;-77
2022/04/08 02:32:38;;;;;;;6.93;1.23;;;5.70;99.90;;;;;;5057493;28;37941;-78
2022/04/08 02:35:05;;;;;;;6.83;1.80;;;5.60;99.90;;;;;;5059725;28;39251;-78
2022/04/08 02:37:31;;;;;;;8.23;1.80;;;5.60;99.90;;;;;;5064923;28;39024;-78
2022/04/08 02:39:58;;;;;;;8.43;1.60;;;5.70;99.90;;;;;;5058360;28;39229;-78
2022/04/08 02:42:24;;;;;;;5.97;1.70;;;5.60;99.90;;;;;;5064398;28;37720;-78
2022/04/08 02:44:50;;;;;;;9.73;2.33;;;5.50;99.90;;;;;;5064698;28;38171;-78
2022/04/08 02:47:16;;;;;;;9.23;2.10;;;5.60;99.90;;;;;;5053984;28;40693;-78
2022/04/08 02:49:44;;;;;;;13.07;2.17;;;5.50;99.90;;;;;;5063119;28;39735;-78
2022/04/08 02:52:10;;;;;;;11.03;3.43;;;5.40;99.90;;;;;;5055679;28;38427;-78
2022/04/08 02:54:36;;;;;;;13.13;2.53;;;5.40;99.90;;;;;;5050466;28;37614;-76
2022/04/08 02:57:02;;;;;;;11.83;2.37;;;5.40;99.90;;;;;;5049736;28;36368;-77
2022/04/08 02:59:28;;;;;;;10.13;2.30;;;5.40;99.90;;;;;;5042668;28;38742;-78
2022/04/08 03:01:55;;;;;;;8.63;2.37;;;5.40;99.90;;;;;;5077260;28;38718;-78
2022/04/08 03:04:22;;;;;;;10.63;2.13;;;5.40;99.90;;;;;;5040896;28;36498;-78
2022/04/08 03:06:48;;;;;;;13.67;2.33;;;5.40;99.90;;;;;;5041295;28;37883;-78
2022/04/08 03:09:14;;;;;;;10.30;2.40;;;5.40;99.90;;;;;;5050954;28;37070;-77
2022/04/08 03:11:40;;;;;;;10.70;2.10;;;5.40;99.90;;;;;;5087023;28;38435;-77
2022/04/08 03:14:06;;;;;;;6.07;1.77;;;5.40;99.90;;;;;;5081514;28;35707;-77
2022/04/08 03:16:32;;;;;;;12.40;1.67;;;5.40;99.90;;;;;;5055288;28;39211;-78
2022/04/08 03:18:58;;;;;;;9.10;2.20;;;5.50;99.90;;;;;;5065713;28;38343;-77
2022/04/08 03:21:25;;;;;;;4.77;2.27;;;5.50;99.90;;;;;;5053651;28;38034;-78
2022/04/08 03:23:52;;;;;;;8.00;1.47;;;5.50;99.90;;;;;;5049856;28;37033;-77
2022/04/08 03:26:19;;;;;;;14.60;1.73;;;5.50;99.90;;;;;;5054460;28;39025;-77
2022/04/08 03:28:46;;;;;;;11.90;1.60;;;5.50;99.90;;;;;;5056240;28;38884;-77
2022/04/08 03:31:12;;;;;;;8.60;1.53;;;5.50;99.90;;;;;;5056201;28;36128;-77
2022/04/08 03:33:38;;;;;;;6.57;1.80;;;5.40;99.90;;;;;;5054699;28;36861;-77
2022/04/08 03:36:05;;;;;;;9.27;1.63;;;5.30;99.90;;;;;;5054345;28;38769;-77
2022/04/08 03:38:31;;;;;;;8.33;1.40;;;5.20;99.90;;;;;;5053648;28;39381;-77
2022/04/08 03:40:57;;;;;;;8.67;2.00;;;5.10;99.90;;;;;;5068952;28;36841;-77
2022/04/08 03:43:23;;;;;;;7.87;2.13;;;5.10;99.90;;;;;;5069975;28;36903;-77
2022/04/08 03:45:49;;;;;;;7.90;1.53;;;5.10;99.90;;;;;;5079879;28;38801;-77
2022/04/08 03:48:15;;;;;;;7.60;1.53;;;5.00;99.90;;;;;;5060717;28;41586;-77
2022/04/08 03:50:41;;;;;;;9.00;1.80;;;5.10;99.90;;;;;;5087437;28;39648;-77
2022/04/08 03:53:10;;;;;;;8.17;1.60;;;5.10;99.90;;;;;;5069998;28;36793;-77
2022/04/08 03:55:36;;;;;;;6.50;1.33;;;5.00;99.90;;;;;;5074123;28;38873;-77
2022/04/08 03:58:02;;;;;;;11.30;1.27;;;4.90;99.90;;;;;;5073299;27;40153;-78
2022/04/08 04:00:28;;;;;;;8.53;1.60;;;5.00;99.90;;;;;;5077207;28;38539;-77
2022/04/08 04:02:54;;;;;;;15.97;1.90;;;5.00;99.90;;;;;;5071585;28;36100;-78
2022/04/08 04:05:21;;;;;;;8.70;1.80;;;4.90;99.90;;;;;;5071458;28;38518;-77
2022/04/08 04:07:47;;;;;;;7.80;1.57;;;4.80;99.90;;;;;;5073420;28;41439;-78
2022/04/08 04:10:14;;;;;;;13.13;1.80;;;4.80;99.90;;;;;;5063119;28;37771;-77
2022/04/08 04:12:42;;;;;;;7.60;2.00;;;4.80;99.90;;;;;;5038116;28;37374;-77
2022/04/08 04:15:09;;;;;;;13.77;2.00;;;4.90;99.90;;;;;;5045398;28;39441;-77
2022/04/08 04:17:35;;;;;;;12.17;2.03;;;4.90;99.90;;;;;;5041301;28;38610;-77
2022/04/08 04:20:04;;;;;;;6.77;1.37;;;4.90;99.90;;;;;;5038570;28;38729;-77
2022/04/08 04:22:30;;;;;;;11.33;2.37;;;4.90;99.90;;;;;;5038040;28;45812;-77
2022/04/08 04:24:56;;;;;;;8.53;1.57;;;5.00;99.90;;;;;;5033059;28;39156;-77
2022/04/08 04:27:22;;;;;;;11.10;1.60;;;5.00;99.90;;;;;;5038059;28;39090;-77
2022/04/08 04:29:48;;;;;;;7.53;1.30;;;5.00;99.90;;;;;;5054516;28;39724;-77
2022/04/08 04:32:17;;;;;;;7.03;1.20;;;5.10;99.90;;;;;;5036533;28;38341;-77
2022/04/08 04:34:43;;;;;;;8.80;1.60;;;5.10;99.90;;;;;;5037274;28;39341;-77
2022/04/08 04:37:11;;;;;;;8.70;1.43;;;5.20;99.90;;;;;;5034334;28;20119;-77
2022/04/08 04:39:37;;;;;;;10.57;2.13;;;5.20;99.90;;;;;;5036054;28;39020;-77
2022/04/08 04:42:04;;;;;;;10.17;1.53;;;5.30;99.90;;;;;;5052376;28;37069;-77
2022/04/08 04:44:30;;;;;;;8.87;1.30;;;5.20;99.90;;;;;;5057872;28;39318;-79
2022/04/08 04:46:56;;;;;;;8.53;1.50;;;5.20;99.90;;;;;;5062210;28;38500;-78
2022/04/08 04:49:23;;;;;;;9.67;1.20;;;5.10;99.90;;;;;;5061550;28;38409;-77
2022/04/08 04:51:50;;;;;;;8.20;1.30;;;5.10;99.90;;;;;;5057607;28;37532;-77
2022/04/08 04:54:16;;;;;;;8.30;1.27;;;5.10;99.90;;;;;;5063089;28;40265;-75
2022/04/08 04:56:43;;;;;;;4.90;1.23;;;5.00;99.90;;;;;;5078126;28;38160;-75
2022/04/08 04:59:10;;;;;;;5.13;0.90;;;5.00;99.90;;;;;;5061339;28;38050;-76
2022/04/08 05:01:36;;;;;;;11.27;1.83;;;5.00;99.90;;;;;;5062689;28;36807;-80
2022/04/08 05:04:02;;;;;;;3.93;1.13;;;4.90;99.90;;;;;;5054817;28;38254;-79
2022/04/08 05:06:29;;;;;;;9.03;1.50;;;4.90;99.90;;;;;;5060480;28;39045;-79
2022/04/08 05:08:55;;;;;;;7.77;1.43;;;4.80;99.90;;;;;;5058542;28;38153;-79
2022/04/08 05:11:21;;;;;;;7.53;1.43;;;4.80;99.90;;;;;;5065522;28;37022;-79
2022/04/08 05:13:47;;;;;;;5.60;1.30;;;4.80;99.90;;;;;;5062678;28;39214;-80
2022/04/08 05:16:13;;;;;;;4.67;1.43;;;4.80;99.90;;;;;;5041730;28;38582;-79
2022/04/08 05:18:39;;;;;;;7.93;1.40;;;4.80;99.90;;;;;;5056369;28;37948;-77
2022/04/08 05:21:05;;;;;;;10.17;1.83;;;4.80;99.90;;;;;;5060151;28;37073;-77
2022/04/08 05:23:32;;;;;;;6.73;1.80;;;4.90;99.90;;;;;;5061410;28;38737;-77
2022/04/08 05:25:59;;;;;;;6.20;1.30;;;4.90;99.90;;;;;;5059112;28;37562;-78
2022/04/08 05:28:25;;;;;;;12.63;1.60;;;5.00;99.90;;;;;;5061892;28;38054;-77
2022/04/08 05:30:52;;;;;;;8.37;1.93;;;5.00;99.90;;;;;;5059663;28;40014;-78
2022/04/08 05:33:18;;;;;;;3.80;1.20;;;5.10;99.90;;;;;;5078892;28;38357;-79
2022/04/08 05:35:45;;;;;;;9.03;1.60;;;5.10;99.90;;;;;;5062671;28;38544;-77
2022/04/08 05:38:11;;;;;;;12.10;1.93;;;5.20;99.90;;;;;;5066350;28;38388;-78
2022/04/08 05:40:38;;;;;;;7.60;1.20;;;5.30;99.90;;;;;;5065480;28;36794;-78
2022/04/08 05:43:04;;;;;;;5.93;1.13;;;5.40;99.90;;;;;;5064593;28;39281;-79
2022/04/08 05:45:30;;;;;;;5.53;1.57;;;5.40;99.90;;;;;;5064436;28;39356;-79
2022/04/08 05:48:02;;;;;;;5.80;1.30;;;5.40;99.90;;;;;;5054132;28;38025;-79
2022/04/08 05:50:28;;;;;;;5.05;0.98;;;5.50;99.90;;;;;;5081514;28;48302;-78
2022/04/08 05:52:54;;;;;;;5.77;1.30;;;5.60;99.90;;;;;;5062352;28;38569;-78
2022/04/08 05:55:24;;;;;;;8.53;1.20;;;5.70;99.90;;;;;;5067503;28;38948;-79
2022/04/08 05:57:53;;;;;;;5.27;1.10;;;5.70;99.90;;;;;;5068658;28;38718;-80
2022/04/08 06:00:20;;;;;;;4.50;0.80;;;5.80;99.90;;;;;;5066613;28;37340;-80
2022/04/08 06:02:47;;;;;;;5.33;1.17;;;5.90;99.90;;;;;;5062803;28;39013;-80
2022/04/08 06:05:20;;;;;;;6.50;0.93;;;5.90;99.90;;;;;;5057995;28;38161;-79
2022/04/08 06:07:48;;;;;;;2.67;1.10;;;5.80;99.90;;;;;;5060339;28;38679;-79
2022/04/08 06:10:26;;;;;;;5.57;1.20;;;5.80;99.90;;;;;;5068670;28;37724;-79
2022/04/08 06:12:53;;;;;;;7.57;1.33;;;5.70;99.90;;;;;;5068112;28;40757;-79
2022/04/08 06:15:19;;;;;;;5.27;1.17;;;5.70;99.90;;;;;;5062485;28;38765;-79
2022/04/08 06:17:46;;;;;;;4.27;1.00;;;5.60;99.90;;;;;;5064176;28;37605;-80
2022/04/08 06:20:16;;;;;;;9.37;1.70;;;5.60;99.90;;;;;;5065486;28;38225;-80
2022/04/08 06:22:42;;;;;;;7.37;1.20;;;5.60;99.90;;;;;;5078980;28;39423;-80
2022/04/08 06:25:14;;;;;;;8.07;1.37;;;5.70;99.90;;;;;;5068444;28;36604;-79
2022/04/08 06:27:40;;;;;;;10.40;1.45;;;5.70;99.90;;;;;;5061691;28;38000;-78
2022/04/08 06:30:12;;;;;;;6.33;1.40;;;5.80;99.90;;;;;;5083265;28;37555;-79
2022/04/08 06:32:39;;;;;;;8.50;1.40;;;5.90;99.90;;;;;;5077991;28;39753;-79
2022/04/08 06:35:06;;;;;;;6.83;1.40;;;5.90;99.90;;;;;;5062266;28;40395;-78
2022/04/08 06:37:32;;;;;;;6.90;1.50;;;6.00;99.90;;;;;;5060539;28;37560;-79
2022/04/08 06:40:07;;;;;;;5.53;1.27;;;6.00;99.90;;;;;;5063798;28;37670;-79
2022/04/08 06:42:34;;;;;;;6.37;1.37;;;6.10;99.90;;;;;;5055917;28;48534;-79
2022/04/08 06:45:00;;;;;;;7.60;1.23;;;6.20;99.90;;;;;;5067365;28;38679;-79
2022/04/08 06:47:26;;;;;;;9.30;1.63;;;6.20;99.90;;;;;;5063145;28;39358;-79
2022/04/08 06:49:53;;;;;;;6.93;1.93;;;6.30;99.90;;;;;;5067185;28;37990;-79
2022/04/08 06:52:19;;;;;;;9.20;1.63;;;6.40;99.90;;;;;;5062070;28;38930;-79
2022/04/08 06:54:45;;;;;;;9.43;1.63;;;6.50;99.90;;;;;;5054256;28;38669;-79
2022/04/08 06:57:11;;;;;;;9.80;1.50;;;6.60;99.90;;;;;;5059273;28;38726;-79
2022/04/08 06:59:39;;;;;;;11.83;1.47;;;6.70;99.90;;;;;;5054379;28;36990;-79
2022/04/08 07:02:05;;;;;;;6.00;1.30;;;6.80;99.90;;;;;;5055680;27;40395;-79
2022/04/08 07:04:31;;;;;;;14.10;1.40;;;6.90;99.90;;;;;;5080726;28;38246;-78
2022/04/08 07:06:57;;;;;;;12.17;2.30;;;7.00;99.90;;;;;;5068573;28;38045;-79
2022/04/08 07:09:23;;;;;;;7.43;1.63;;;7.00;99.90;;;;;;5062539;28;37686;-79
2022/04/08 07:11:49;;;;;;;5.27;1.13;;;7.20;99.90;;;;;;5083504;28;39595;-79
2022/04/08 07:14:15;;;;;;;8.37;1.37;;;7.20;99.90;;;;;;5089297;28;38151;-79
2022/04/08 07:16:43;;;;;;;7.93;1.60;;;7.40;99.90;;;;;;5064266;28;37840;-79
2022/04/08 07:19:12;;;;;;;7.80;1.50;;;7.50;99.90;;;;;;5077394;28;36267;-78
2022/04/08 07:21:39;;;;;;;9.67;1.80;;;7.60;99.90;;;;;;5066472;28;39429;-78
2022/04/08 07:24:05;;;;;;;14.13;2.20;;;7.60;99.90;;;;;;5068650;28;38599;-78
2022/04/08 07:26:31;;;;;;;9.00;1.93;;;7.60;99.90;;;;;;5044689;28;40010;-78
2022/04/08 07:29:03;;;;;;;5.77;1.60;;;7.60;99.90;;;;;;5063787;28;38238;-79
2022/04/08 07:31:29;;;;;;;9.95;1.88;;;7.60;99.90;;;;;;5062784;28;49036;-78
2022/04/08 07:33:56;;;;;;;10.80;2.47;;;7.70;99.90;;;;;;5067391;28;38402;-78
2022/04/08 07:36:22;;;;;;;8.93;1.80;;;7.80;99.90;;;;;;5070865;28;40027;-78
2022/04/08 07:38:49;;;;;;;12.80;2.50;;;7.90;99.90;;;;;;5063288;28;38129;-78
2022/04/08 07:41:17;;;;;;;10.87;2.50;;;8.00;99.90;;;;;;5080931;28;38865;-77
2022/04/08 07:43:44;;;;;;;9.63;1.83;;;8.10;99.90;;;;;;5066632;28;38452;-76
2022/04/08 07:46:10;;;;;;;9.77;2.70;;;8.20;99.90;;;;;;5063430;28;38191;-76
2022/04/08 07:48:36;;;;;;;12.87;3.00;;;8.20;99.90;;;;;;5069597;28;38054;-77
2022/04/08 07:51:02;;;;;;;7.20;1.47;;;8.30;99.90;;;;;;5072374;28;38607;-76
2022/04/08 07:53:28;;;;;;;8.60;1.10;;;8.30;99.90;;;;;;5077093;28;38444;-78
2022/04/08 07:55:55;;;;;;;11.80;1.80;;;8.40;99.90;;;;;;5068603;28;37739;-76
2022/04/08 07:58:21;;;;;;;7.13;1.40;;;8.40;99.90;;;;;;5046864;28;38955;-77
2022/04/08 08:00:47;;;;;;;9.07;1.90;;;8.40;99.90;;;;;;5066391;28;38784;-76
2022/04/08 08:03:15;;;;;;;8.83;1.70;;;8.40;99.90;;;;;;5060133;28;38391;-76
2022/04/08 08:05:41;;;;;;;11.07;2.13;;;8.50;99.90;;;;;;5067718;28;38728;-76
2022/04/08 08:08:07;;;;;;;16.00;1.60;;;8.50;99.90;;;;;;5063497;28;36592;-76
2022/04/08 08:10:41;;;;;;;9.43;1.20;;;8.60;99.90;;;;;;5050864;28;40425;-76
2022/04/08 08:13:07;;;;;;;9.57;1.50;;;8.70;99.90;;;;;;5071499;28;37622;-76
2022/04/08 08:15:36;;;;;;;8.10;1.67;;;8.60;99.90;;;;;;5071768;28;38266;-76
2022/04/08 08:18:03;;;;;;;10.23;1.40;;;8.60;99.90;;;;;;5073817;27;36680;-76
2022/04/08 08:20:29;;;;;;;5.97;1.30;;;8.60;99.90;;;;;;5085421;28;38951;-76
2022/04/08 08:22:55;;;;;;;10.17;1.17;;;8.70;99.90;;;;;;5084620;28;37828;-76
2022/04/08 08:25:22;;;;;;;9.03;1.83;;;8.90;99.90;;;;;;5068675;28;37983;-76
2022/04/08 08:27:53;;;;;;;10.67;1.37;;;8.90;99.90;;;;;;5076437;28;36718;-76
2022/04/08 08:30:23;;;;;;;12.93;1.77;;;9.00;99.90;;;;;;5069361;28;39606;-76
2022/04/08 08:32:50;;;;;;;9.67;1.10;;;9.00;99.90;;;;;;5062875;28;39038;-76
2022/04/08 08:35:17;;;;;;;6.13;1.43;;;8.90;99.90;;;;;;5055253;28;38459;-76
2022/04/08 08:37:44;;;;;;;10.70;1.63;;;8.90;99.90;;;;;;5065523;28;37644;-76
2022/04/08 08:40:12;;;;;;;8.07;1.57;;;8.90;99.90;;;;;;5066299;28;37699;-76
2022/04/08 08:42:39;;;;;;;7.43;1.23;;;9.00;99.90;;;;;;5069223;28;37575;-76
2022/04/08 08:45:07;;;;;;;5.93;1.13;;;9.30;99.90;;;;;;5068193;28;37083;-76
2022/04/08 08:47:33;;;;;;;10.00;1.07;;;9.50;99.90;;;;;;5066139;28;37384;-74
2022/04/08 08:50:00;;;;;;;7.57;1.50;;;9.70;99.90;;;;;;5058673;28;38011;-74
2022/04/08 08:52:28;;;;;;;6.77;1.30;;;9.90;99.90;;;;;;5058689;28;36524;-75
2022/04/08 08:54:55;;;;;;;6.68;1.23;;;10.10;99.90;;;;;;5055409;28;38085;-76
2022/04/08 08:57:22;;;;;;;7.97;1.20;;;10.10;99.90;;;;;;5055632;28;36820;-75
2022/04/08 08:59:52;;;;;;;7.93;1.40;;;10.20;99.90;;;;;;5061983;28;38984;-75
2022/04/08 09:02:21;;;;;;;10.90;1.30;;;10.30;99.90;;;;;;5049642;28;37633;-76
2022/04/08 09:04:51;;;;;;;7.13;1.20;;;10.30;99.90;;;;;;5069634;28;37200;-75
2022/04/08 09:07:27;;;;;;;10.43;1.50;;;10.20;99.90;;;;;;5055789;27;37243;-76
2022/04/08 09:09:55;;;;;;;6.07;1.47;;;10.00;99.90;;;;;;5069943;28;38669;-75
2022/04/08 09:12:26;;;;;;;7.70;1.30;;;9.80;99.90;;;;;;5071492;28;37105;-75
2022/04/08 09:14:55;;;;;;;8.38;1.67;;;9.90;99.90;;;;;;5078518;28;37854;-75
2022/04/08 09:17:23;;;;;;;7.22;1.40;;;10.00;99.90;;;;;;5068368;28;36028;-75
2022/04/08 09:19:52;;;;;;;7.20;1.67;;;10.10;99.90;;;;;;5064720;28;38714;-75
2022/04/08 09:22:20;;;;;;;11.05;1.80;;;10.30;99.90;;;;;;5052996;28;39246;-76
2022/04/08 09:24:47;;;;;;;6.50;1.25;;;10.20;99.90;;;;;;5065686;28;37141;-76
2022/04/08 09:27:13;;;;;;;5.57;0.88;;;10.00;99.90;;;;;;5067940;28;37138;-75
2022/04/08 09:29:45;;;;;;;7.73;1.40;;;9.70;99.90;;;;;;5039456;28;37507;-75
2022/04/08 09:32:14;;;;;;;5.60;1.85;;;9.70;99.90;;;;;;5043581;28;38311;-76
2022/04/08 09:34:42;;;;;;;7.75;1.35;;;9.90;99.90;;;;;;5060108;28;36790;-76
2022/04/08 09:37:13;;;;;;;7.05;1.38;;;10.10;99.90;;;;;;5051315;28;36404;-75
2022/04/08 09:39:59;;;;;;;9.50;1.97;;;10.20;99.90;;;;;;5074790;28;39955;-75
2022/04/08 09:42:43;;;;;;;7.45;1.75;;;10.10;99.90;;;;;;5069203;27;38294;-76
2022/04/08 09:45:11;;;;;;;9.57;1.75;;;10.10;99.90;;;;;;5061505;28;38913;-76
2022/04/08 09:47:38;;;;;;;11.10;1.90;;;10.10;99.90;;;;;;5056301;28;37042;-76
2022/04/08 09:50:10;;;;;;;8.68;2.03;;;10.00;99.90;;;;;;5054147;28;38949;-76
2022/04/08 09:52:39;;;;;;;6.03;1.55;;;10.00;99.90;;;;;;5041243;28;39417;-76
2022/04/08 09:55:07;;;;;;;8.43;1.48;;;10.10;99.90;;;;;;5048568;28;36986;-75
2022/04/08 09:57:39;;;;;;;6.55;1.55;;;10.20;99.90;;;;;;5047129;28;38103;-76
2022/04/08 10:00:07;;;;;;;10.48;1.98;;;10.20;99.90;;;;;;5058079;28;37755;-75
2022/04/08 10:02:35;;;;;;;7.63;1.90;;;10.10;99.90;;;;;;5067017;28;37165;-75
2022/04/08 10:05:02;;;;;;;8.32;1.42;;;10.20;99.90;;;;;;5066552;28;36822;-76
2022/04/08 10:07:29;;;;;;;9.20;1.33;;;10.40;99.90;;;;;;5071890;28;47387;-75
2022/04/08 10:10:14;;;;;;;8.57;1.42;;;10.50;99.90;;;;;;5058250;28;37789;-75
2022/04/08 10:13:05;;;;;;;10.40;1.80;;;10.90;99.90;;;;;;5064077;28;48744;-76
2022/04/08 10:15:34;;;;;;;6.75;1.30;;;11.00;99.90;;;;;;5060443;28;49658;-75
2022/04/08 10:18:04;;;;;;;13.23;1.52;;;11.00;99.90;;;;;;5068489;28;36008;-76
2022/04/08 10:20:32;;;;;;;11.73;1.90;;;10.90;99.90;;;;;;5064744;28;48077;-75
2022/04/08 10:23:11;;;;;;;5.47;1.08;;;10.50;99.90;;;;;;5068746;28;38378;-76
2022/04/08 10:25:42;;;;;;;7.85;1.20;;;10.50;99.90;;;;;;5055771;28;47354;-75
2022/04/08 10:28:10;;;;;;;8.10;2.03;;;10.40;99.90;;;;;;5066503;28;37123;-77
2022/04/08 10:30:56;;;;;;;6.28;1.48;;;10.50;99.90;;;;;;5063430;28;40067;-75
2022/04/08 10:33:27;;;;;;;11.75;1.80;;;10.50;99.90;;;;;;5066539;27;38152;-76
2022/04/08 10:35:55;;;;;;;7.95;1.88;;;10.60;99.90;;;;;;5067768;28;38079;-75
2022/04/08 10:38:22;;;;;;;11.45;2.53;;;10.70;99.90;;;;;;5056327;28;37589;-77
2022/04/08 10:40:58;;;;;;;8.65;1.60;;;10.90;99.90;;;;;;5059233;28;38875;-76
2022/04/08 10:43:26;;;;;;;9.02;1.67;;;10.80;99.90;;;;;;5062180;28;39936;-75
2022/04/08 10:46:03;;;;;;;7.82;1.50;;;10.70;99.90;;;;;;5039625;28;38629;-75
2022/04/08 10:48:33;;;;;;;10.55;1.40;;;10.50;99.90;;;;;;5055682;28;47595;-75
2022/04/08 10:51:10;;;;;;;8.52;1.42;;;10.30;99.90;;;;;;5068533;28;38577;-75
2022/04/08 10:53:41;;;;;;;4.55;0.93;;;10.30;99.90;;;;;;5067153;28;49198;-74
2022/04/08 10:56:13;;;;;;;6.82;1.83;;;10.30;99.90;;;;;;5064587;28;38502;-74
2022/04/08 10:58:49;;;;;;;8.02;1.15;;;10.30;99.90;;;;;;5072592;27;37071;-75
2022/04/08 11:01:25;;;;;;;9.30;1.17;;;10.30;99.90;;;;;;5041106;28;39342;-74
2022/04/08 11:03:58;;;;;;;5.85;1.27;;;10.20;99.90;;;;;;5065993;28;39706;-74
2022/04/08 11:06:30;;;;;;;5.53;1.00;;;10.00;99.90;;;;;;5066943;28;38334;-74
2022/04/08 11:08:57;;;;;;;5.00;1.10;;;10.10;99.90;;;;;;5067552;28;37187;-75
2022/04/08 11:11:30;;;;;;;7.05;1.55;;;10.20;99.90;;;;;;5045641;28;38904;-76
2022/04/08 11:13:57;;;;;;;6.93;1.27;;;10.00;99.90;;;;;;5047973;28;39296;-74
2022/04/08 11:16:26;;;;;;;7.20;1.55;;;9.90;99.90;;;;;;5068102;28;38544;-75
2022/04/08 11:18:53;;;;;;;4.33;1.20;;;9.90;99.90;;;;;;5071400;28;37370;-78
2022/04/08 11:21:23;;;;;;;11.05;1.25;;;10.00;99.90;;;;;;5074746;28;38789;-79
2022/04/08 11:24:02;;;;;;;3.67;1.45;;;10.00;99.90;;;;;;5065795;28;38917;-79
2022/04/08 11:26:30;;;;;;;11.70;1.73;;;10.30;99.90;;;;;;5065417;28;47543;-80
2022/04/08 11:28:56;;;;;;;6.88;1.60;;;10.40;99.90;;;;;;5071771;28;35759;-79
2022/04/08 11:31:23;;;;;;;8.15;1.48;;;10.60;99.90;;;;;;5066381;28;37890;-80
2022/04/08 11:33:49;;;;;;;6.38;1.35;;;10.60;99.90;;;;;;5059520;28;38592;-80
2022/04/08 11:36:22;;;;;;;7.10;1.58;;;10.60;99.90;;;;;;5060748;28;37435;-79
2022/04/08 11:38:48;;;;;;;;;;;10.30;99.90;;;;;;5062361;28;38616;-78
2022/04/08 11:41:19;;;;;;;9.68;1.75;;;10.10;99.90;;;;;;5052667;28;39301;-79
2022/04/08 11:43:45;;;;;;;6.07;1.38;;;10.10;99.90;;;;;;5087838;28;38510;-79
2022/04/08 11:46:16;;;;;;;6.20;1.50;;;10.00;99.90;;;;;;5071433;28;37053;-79
2022/04/08 11:48:43;;;;;;;9.73;1.75;;;10.10;99.90;;;;;;5068573;28;37413;-79
2022/04/08 11:51:09;;;;;;;14.38;2.28;;;10.30;99.90;;;;;;5067638;28;41037;-78
2022/04/08 11:53:46;;;;;;;7.60;2.53;;;10.40;99.90;;;;;;5064646;28;38483;-80
2022/04/08 11:56:23;;;;;;;5.75;1.50;;;10.50;99.90;;;;;;5069921;28;37343;-80
2022/04/08 11:59:11;;;;;;;6.53;1.17;;;10.50;99.90;;;;;;5070028;28;36452;-80
2022/04/08 12:01:38;;;;;;;9.15;1.98;;;10.40;99.90;;;;;;5062233;28;47069;-80
2022/04/08 12:04:11;;;;;;;4.72;1.35;;;10.40;99.90;;;;;;5063393;28;38548;-80
2022/04/08 12:06:45;;;;;;;4.70;1.60;;;10.60;99.90;;;;;;5062697;28;39200;-79
2022/04/08 12:09:14;;;;;;;4.53;1.27;;;10.40;99.90;;;;;;5060774;28;35925;-80
2022/04/08 12:11:44;;;;;;;5.82;1.00;;;10.40;99.90;;;;;;5061745;28;38428;-80
2022/04/08 12:14:11;;;;;;;6.50;1.08;;;10.50;99.90;;;;;;5061678;28;37811;-79
2022/04/08 12:16:39;;;;;;;4.85;1.50;;;10.60;99.90;;;;;;5073069;28;36818;-80
2022/04/08 12:19:08;;;;;;;3.42;1.40;;;10.80;99.90;;;;;;5078984;27;38184;-80
2022/04/08 12:21:37;;;;;;;7.32;1.17;;;11.00;99.90;;;;;;5058560;28;39748;-81
2022/04/08 12:24:04;;;;;;;5.55;1.00;;;11.20;99.90;;;;;;5067218;27;38213;-80
2022/04/08 12:26:32;;;;;;;4.72;1.08;;;10.80;99.90;;;;;;5064022;28;39198;-80
2022/04/08 12:29:07;;;;;;;5.22;1.25;;;10.70;99.90;;;;;;5066485;28;36134;-80
2022/04/08 12:31:50;;;;;;;6.80;1.52;;;11.00;99.90;;;;;;5078855;28;47345;-82
2022/04/08 12:34:17;;;;;;;6.53;1.30;;;11.20;99.90;;;;;;5081046;28;37398;-84
2022/04/08 12:36:45;;;;;;;4.90;1.00;;;11.50;99.90;;;;;;5103348;28;37029;-81
2022/04/08 12:39:13;;;;;;;4.18;1.33;;;11.40;99.90;;;;;;5093973;28;37086;-81
2022/04/08 12:41:41;;;;;;;6.72;1.50;;;11.10;99.90;;;;;;5105436;28;38553;-81
2022/04/08 12:44:10;;;;;;;6.85;1.20;;;11.20;99.90;;;;;;5087693;28;37466;-81
2022/04/08 12:46:40;;;;;;;6.38;1.30;;;11.30;99.90;;;;;;5076660;28;39687;-81
2022/04/08 12:49:12;;;;;;;7.38;1.38;;;11.50;99.90;;;;;;5057471;28;38743;-83
2022/04/08 12:51:40;;;;;;;7.30;1.20;;;11.30;99.90;;;;;;5081773;28;39255;-82
2022/04/08 12:54:06;;;;;;;7.35;1.23;;;11.30;99.90;;;;;;5089852;28;38227;-82